Time;durP1;ratioP1;P1;durP2;ratioP2;P2;SDS_P1;SDS_P2;PMS_P1;PMS_P2;Temp;Humidity;BMP_temperature;BMP_pressure;BME280_temperature;BME280_humidity;BME280_pressure;Samples;Min_cycle;Max_cycle;Signal;HPM_P1;HPM_P2
2023/06/27 00:01:04;;;;;;;4.82;1.08;;;;;;;16.78;88.14;101555.94;6250824;28;20045;-72
2023/06/27 00:04:05;;;;;;;1.85;1.05;;;;;;;16.67;88.24;101553.97;6251593;28;20092;-72
2023/06/27 00:07:10;;;;;;;4.00;0.90;;;;;;;16.65;88.06;101561.16;6251281;28;20048;-72
2023/06/27 00:10:12;;;;;;;2.90;0.95;;;;;;;16.60;88.77;101555.31;6251513;28;20052;-71
2023/06/27 00:13:16;;;;;;;3.60;1.10;;;;;;;16.58;89.15;101559.84;6254622;28;20049;-72
2023/06/27 00:16:17;;;;;;;3.28;1.00;;;;;;;16.55;89.50;101557.41;6276050;28;20536;-71
2023/06/27 00:19:19;;;;;;;2.25;0.82;;;;;;;16.49;90.10;101559.53;6275938;28;20052;-72
2023/06/27 00:22:20;;;;;;;2.47;1.17;;;;;;;16.54;90.81;101566.34;6253234;28;20057;-72
2023/06/27 00:25:21;;;;;;;1.92;1.10;;;;;;;16.60;90.48;101569.44;6250996;28;20048;-72
2023/06/27 00:28:24;;;;;;;5.43;1.30;;;;;;;16.52;89.36;101565.56;6250819;28;20049;-72
2023/06/27 00:31:26;;;;;;;3.80;0.90;;;;;;;16.34;90.47;101564.97;6250172;28;20068;-72
2023/06/27 00:34:27;;;;;;;2.53;0.95;;;;;;;16.19;90.84;101570.31;6250813;28;20045;-72
2023/06/27 00:37:29;;;;;;;11.73;1.50;;;;;;;16.11;91.13;101572.59;6250899;28;20046;-72
2023/06/27 00:40:30;;;;;;;1.67;1.23;;;;;;;15.98;92.38;101572.50;6250013;28;20053;-72
2023/06/27 00:43:33;;;;;;;3.40;1.20;;;;;;;16.11;92.37;101564.63;6250336;28;20046;-72
2023/06/27 00:46:38;;;;;;;7.47;1.42;;;;;;;16.07;91.22;101576.38;6249554;28;20060;-72
2023/06/27 00:49:39;;;;;;;6.88;1.65;;;;;;;15.98;91.38;101574.31;6249855;28;20053;-72
2023/06/27 00:52:41;;;;;;;6.38;1.33;;;;;;;16.00;92.54;101574.22;6248811;28;20045;-72
2023/06/27 00:55:42;;;;;;;2.45;1.25;;;;;;;15.90;92.01;101577.44;6249667;28;20049;-72
2023/06/27 00:58:46;;;;;;;2.38;1.00;;;;;;;15.96;92.90;101571.75;6249519;28;20053;-72
2023/06/27 01:01:47;;;;;;;2.75;0.95;;;;;;;16.00;90.03;101574.22;6249174;28;20042;-71
2023/06/27 01:04:48;;;;;;;3.25;1.38;;;;;;;15.96;89.48;101571.75;6249369;28;20045;-72
2023/06/27 01:07:56;;;;;;;4.80;1.48;;;;;;;15.90;90.72;101581.91;6250025;28;20048;-72
2023/06/27 01:11:04;;;;;;;4.55;1.42;;;;;;;15.85;88.99;101576.00;6273491;28;20057;-72
2023/06/27 01:14:09;;;;;;;1.58;0.80;;;;;;;15.72;88.71;101579.44;6273839;28;20045;-72
2023/06/27 01:17:11;;;;;;;1.85;1.05;;;;;;;15.69;89.86;101571.66;6274035;28;20045;-72
2023/06/27 01:20:13;;;;;;;3.85;1.30;;;;;;;15.72;88.84;101578.59;6273909;28;20052;-72
2023/06/27 01:23:19;;;;;;;1.85;0.95;;;;;;;15.73;89.45;101581.13;6274240;28;20049;-72
2023/06/27 01:26:22;;;;;;;3.08;1.00;;;;;;;15.73;88.38;101577.63;6278225;28;20382;-71
2023/06/27 01:29:25;;;;;;;2.35;1.30;;;;;;;15.63;89.55;101571.19;6278401;28;20132;-71
2023/06/27 01:32:32;;;;;;;3.42;1.13;;;;;;;15.62;88.97;101570.28;6277403;28;20426;-71
2023/06/27 01:35:39;;;;;;;2.05;1.20;;;;;;;15.64;87.71;101572.91;6278153;28;20052;-72
2023/06/27 01:38:47;;;;;;;3.70;1.10;;;;;;;15.47;89.83;101566.78;6278027;28;20051;-71
2023/06/27 01:41:54;;;;;;;1.80;1.02;;;;;;;15.55;87.87;101563.69;6245539;28;20046;-72
2023/06/27 01:44:57;;;;;;;2.53;1.02;;;;;;;15.59;88.09;101559.91;6219581;28;997190;-72
2023/06/27 01:48:00;;;;;;;6.18;1.52;;;;;;;15.50;88.60;101557.81;6254859;28;20437;-72
2023/06/27 01:51:01;;;;;;;6.65;1.10;;;;;;;15.48;88.63;101562.34;6253928;28;20049;-72
2023/06/27 01:54:03;;;;;;;4.22;1.10;;;;;;;15.35;87.34;101556.09;6254675;28;20438;-72
2023/06/27 01:57:06;;;;;;;2.05;1.10;;;;;;;15.37;88.62;101567.44;6254457;28;20049;-72
2023/06/27 02:00:10;;;;;;;5.95;1.40;;;;;;;15.35;88.76;101564.03;6254604;28;20053;-72
2023/06/27 02:03:12;;;;;;;1.40;0.68;;;;;;;15.32;89.21;101559.78;6266336;28;20330;-72
2023/06/27 02:06:15;;;;;;;2.53;1.52;;;;;;;15.28;88.51;101566.22;6278794;28;20056;-71
2023/06/27 02:09:16;;;;;;;5.93;1.42;;;;;;;15.28;87.12;101554.75;6279002;28;20057;-72
2023/06/27 02:12:19;;;;;;;2.20;1.10;;;;;;;15.28;87.94;101550.31;6278076;28;20353;-72
2023/06/27 02:15:20;;;;;;;2.95;1.10;;;;;;;15.25;88.91;101549.66;6278850;28;20048;-72
2023/06/27 02:18:22;;;;;;;2.90;1.13;;;;;;;15.27;87.89;101551.28;6278657;28;20044;-72
2023/06/27 02:21:23;;;;;;;3.63;1.10;;;;;;;15.12;87.70;101552.16;6278093;28;20052;-72
2023/06/27 02:24:24;;;;;;;4.90;1.02;;;;;;;15.07;89.20;101556.88;6278594;28;20373;-72
2023/06/27 02:27:27;;;;;;;2.08;1.33;;;;;;;15.13;88.04;101553.91;6278707;28;20048;-72
2023/06/27 02:30:28;;;;;;;2.85;0.93;;;;;;;15.08;88.63;101554.16;6278466;28;20472;-71
2023/06/27 02:33:29;;;;;;;2.13;0.90;;;;;;;14.98;88.47;101555.63;6278267;28;20045;-72
2023/06/27 02:36:31;;;;;;;3.10;1.02;;;;;;;14.96;89.70;101552.22;6278256;28;20049;-72
2023/06/27 02:39:33;;;;;;;2.80;1.08;;;;;;;15.00;88.88;101555.56;6278129;28;20331;-72
2023/06/27 02:42:35;;;;;;;1.38;1.25;;;;;;;15.03;88.68;101552.72;6261371;28;20049;-72
2023/06/27 02:45:37;;;;;;;1.58;1.02;;;;;;;15.00;88.04;101559.06;6252734;28;20438;-72
2023/06/27 02:48:38;;;;;;;2.20;1.13;;;;;;;14.86;88.73;101557.22;6253279;28;20044;-72
2023/06/27 02:51:39;;;;;;;1.48;1.05;;;;;;;14.85;89.54;101557.28;6252911;28;20434;-71
2023/06/27 02:54:41;;;;;;;7.40;1.00;;;;;;;14.96;90.39;101553.09;6252363;28;20595;-72
2023/06/27 02:57:43;;;;;;;3.22;1.25;;;;;;;15.00;90.32;101555.56;6245209;28;20037;-72
2023/06/27 03:00:45;;;;;;;3.28;1.23;;;;;;;14.94;90.04;101554.97;6252557;28;20431;-72
2023/06/27 03:03:46;;;;;;;4.15;0.98;;;;;;;15.03;89.81;101553.56;6253047;28;20134;-71
2023/06/27 03:06:47;;;;;;;2.92;0.90;;;;;;;15.03;90.03;101552.72;6252979;28;20045;-72
2023/06/27 03:09:49;;;;;;;1.42;0.90;;;;;;;15.04;90.41;101550.00;6253068;28;20041;-72
2023/06/27 03:12:51;;;;;;;3.42;1.50;;;;;;;15.03;90.07;101550.06;6252209;28;20068;-72
2023/06/27 03:15:52;;;;;;;1.77;1.20;;;;;;;15.03;89.87;101542.13;6252629;28;20045;-72
2023/06/27 03:18:54;;;;;;;2.90;1.08;;;;;;;14.98;91.26;101550.34;6252861;28;20042;-71
2023/06/27 03:21:55;;;;;;;2.22;1.05;;;;;;;15.00;90.67;101544.97;6251951;28;20076;-72
2023/06/27 03:24:56;;;;;;;1.05;0.90;;;;;;;14.97;91.78;101544.19;6252490;28;20049;-72
2023/06/27 03:27:59;;;;;;;6.00;1.20;;;;;;;14.89;90.93;101545.59;6252306;28;20075;-71
2023/06/27 03:31:00;;;;;;;2.75;1.20;;;;;;;14.83;91.38;101546.81;6251878;28;20513;-71
2023/06/27 03:34:03;;;;;;;2.38;1.20;;;;;;;14.85;91.25;101552.00;6252161;28;20053;-72
2023/06/27 03:37:05;;;;;;;4.93;1.30;;;;;;;14.70;91.73;101546.66;6252349;28;20041;-72
2023/06/27 03:40:08;;;;;;;5.85;1.30;;;;;;;14.76;92.32;101548.13;6252143;28;20053;-71
2023/06/27 03:43:12;;;;;;;3.55;1.00;;;;;;;14.59;91.03;101548.22;6249243;28;20119;-71
2023/06/27 03:46:14;;;;;;;5.05;1.05;;;;;;;14.57;93.36;101544.81;6246839;28;20045;-72
2023/06/27 03:49:16;;;;;;;2.95;1.15;;;;;;;14.58;93.83;101542.09;6247679;28;20095;-72
2023/06/27 03:52:17;;;;;;;4.63;1.35;;;;;;;14.58;93.49;101543.84;6246988;28;20053;-72
2023/06/27 03:55:20;;;;;;;1.10;1.00;;;;;;;14.51;93.75;101539.88;6247064;28;20045;-74
2023/06/27 03:58:23;;;;;;;1.77;1.08;;;;;;;14.45;95.63;101546.34;6269869;28;20041;-74
2023/06/27 04:01:24;;;;;;;3.42;0.98;;;;;;;14.65;94.72;101547.88;6271549;28;20382;-72
2023/06/27 04:04:26;;;;;;;5.95;2.20;;;;;;;14.70;94.21;101551.94;6272303;28;20041;-72
2023/06/27 04:07:27;;;;;;;2.97;1.48;;;;;;;14.65;95.71;101553.16;6271559;28;20056;-72
2023/06/27 04:10:29;;;;;;;3.90;1.40;;;;;;;14.61;96.57;101552.47;6272055;28;20049;-71
2023/06/27 04:13:31;;;;;;;6.03;1.70;;;;;;;14.61;96.18;101549.84;6271678;28;20041;-71
2023/06/27 04:16:33;;;;;;;3.42;1.55;;;;;;;14.60;97.00;101558.72;6271740;28;20049;-71
2023/06/27 04:19:34;;;;;;;2.75;1.33;;;;;;;14.58;97.17;101549.16;6272164;28;20048;-71
2023/06/27 04:22:35;;;;;;;4.20;1.60;;;;;;;14.52;98.46;101550.34;6271213;28;20469;-71
2023/06/27 04:25:37;;;;;;;6.13;1.73;;;;;;;14.58;99.07;101551.78;6271487;28;20361;-71
2023/06/27 04:28:40;;;;;;;1.92;1.50;;;;;;;14.67;99.95;101551.25;6271101;28;20052;-72
2023/06/27 04:31:42;;;;;;;3.35;1.30;;;;;;;14.76;99.34;101560.47;6270821;28;20049;-72
2023/06/27 04:34:43;;;;;;;4.57;1.40;;;;;;;14.84;100.00;101551.16;6240131;28;20052;-72
2023/06/27 04:37:44;;;;;;;2.22;1.55;;;;;;;14.83;99.00;101556.53;6250931;28;20045;-74
2023/06/27 04:40:46;;;;;;;5.15;1.48;;;;;;;14.70;100.00;101553.75;6250070;28;20052;-73
2023/06/27 04:43:48;;;;;;;2.63;1.52;;;;;;;14.90;99.79;101556.09;6250652;28;20057;-74
2023/06/27 04:46:50;;;;;;;3.53;1.73;;;;;;;14.77;99.92;101552.47;6250597;28;20457;-72
2023/06/27 04:49:51;;;;;;;5.43;1.88;;;;;;;14.70;100.00;101551.09;6250451;28;20343;-75
2023/06/27 04:52:52;;;;;;;2.65;1.40;;;;;;;14.90;100.00;101547.31;6250010;28;20056;-72
2023/06/27 04:55:54;;;;;;;5.30;2.55;;;;;;;14.89;99.91;101546.44;6250309;28;20132;-71
2023/06/27 04:58:57;;;;;;;3.20;1.65;;;;;;;14.90;99.58;101548.16;6250489;28;20044;-72
2023/06/27 05:01:58;;;;;;;6.35;1.77;;;;;;;15.05;98.77;101550.84;6249637;28;20057;-73
2023/06/27 05:04:59;;;;;;;3.20;1.48;;;;;;;15.11;98.26;101551.31;6250455;28;20053;-72
2023/06/27 05:08:02;;;;;;;4.90;1.77;;;;;;;15.12;97.84;101555.66;6250225;28;20050;-73
2023/06/27 05:11:04;;;;;;;4.40;1.27;;;;;;;15.12;96.43;101554.81;6249758;28;20050;-73
2023/06/27 05:14:07;;;;;;;4.75;1.60;;;;;;;15.18;97.80;101543.88;6250122;28;20041;-73
2023/06/27 05:17:08;;;;;;;2.50;1.17;;;;;;;15.25;96.81;101552.28;6250306;28;20050;-72
2023/06/27 05:20:12;;;;;;;3.92;1.33;;;;;;;15.30;96.91;101548.41;6250476;28;20045;-73
2023/06/27 05:23:13;;;;;;;3.17;1.48;;;;;;;15.32;96.11;101546.53;6249858;28;20049;-73
2023/06/27 05:26:14;;;;;;;7.78;1.70;;;;;;;15.33;96.50;101545.59;6250376;28;20049;-72
2023/06/27 05:29:17;;;;;;;5.30;1.33;;;;;;;15.37;95.84;101543.63;6249991;28;20042;-72
2023/06/27 05:32:18;;;;;;;4.03;1.35;;;;;;;15.45;95.05;101542.22;6249648;28;20045;-73
2023/06/27 05:35:20;;;;;;;3.88;1.75;;;;;;;15.51;96.85;101543.63;6250029;28;20045;-72
2023/06/27 05:38:21;;;;;;;4.22;1.55;;;;;;;15.59;95.04;101548.47;6249987;28;20049;-73
2023/06/27 05:41:23;;;;;;;5.60;1.80;;;;;;;15.51;93.83;101540.13;6271231;28;20049;-72
2023/06/27 05:44:25;;;;;;;4.38;1.85;;;;;;;15.61;94.46;101542.09;6252267;28;20053;-72
2023/06/27 05:47:27;;;;;;;4.00;1.30;;;;;;;15.66;94.52;101552.44;6249770;28;20353;-72
2023/06/27 05:50:28;;;;;;;3.08;1.55;;;;;;;15.67;93.67;101548.88;6250068;28;20129;-73
2023/06/27 05:53:30;;;;;;;3.90;1.33;;;;;;;15.73;94.24;101552.00;6272648;28;20464;-73
2023/06/27 05:56:31;;;;;;;3.88;1.60;;;;;;;15.83;94.45;101546.97;6274727;28;20046;-72
2023/06/27 05:59:34;;;;;;;2.75;1.25;;;;;;;15.89;94.87;101556.31;6251011;28;20357;-73
2023/06/27 06:02:35;;;;;;;2.70;1.13;;;;;;;16.05;95.04;101558.88;6249167;28;20050;-72
2023/06/27 06:05:36;;;;;;;3.55;1.63;;;;;;;16.06;93.11;101557.91;6249720;28;20058;-73
2023/06/27 06:08:38;;;;;;;8.32;1.70;;;;;;;16.14;93.76;101555.63;6249316;28;20042;-73
2023/06/27 06:11:39;;;;;;;3.53;1.35;;;;;;;16.21;93.06;101556.94;6253826;28;20053;-72
2023/06/27 06:14:43;;;;;;;4.45;1.23;;;;;;;16.26;92.02;101549.56;6253992;28;20049;-74
2023/06/27 06:17:44;;;;;;;3.78;1.27;;;;;;;16.31;92.90;101558.06;6254222;28;20056;-74
2023/06/27 06:20:45;;;;;;;3.00;1.58;;;;;;;16.34;91.93;101551.69;6253338;28;20045;-73
2023/06/27 06:23:47;;;;;;;2.90;1.35;;;;;;;16.41;90.82;101556.50;6254169;28;20048;-72
2023/06/27 06:26:48;;;;;;;4.07;1.30;;;;;;;16.43;91.04;101559.06;6253856;28;20046;-73
2023/06/27 06:29:51;;;;;;;4.00;1.42;;;;;;;16.44;91.85;101550.13;6253954;28;20042;-73
2023/06/27 06:32:52;;;;;;;2.75;1.30;;;;;;;16.46;91.64;101551.75;6253121;28;20052;-73
2023/06/27 06:35:53;;;;;;;2.78;1.23;;;;;;;16.54;92.78;101548.59;6263211;28;20362;-73
2023/06/27 06:38:55;;;;;;;5.35;1.10;;;;;;;16.57;91.61;101555.50;6278428;28;20048;-72
2023/06/27 06:41:56;;;;;;;1.65;1.00;;;;;;;16.64;92.26;101554.16;6277453;28;20064;-73
2023/06/27 06:44:59;;;;;;;2.03;1.17;;;;;;;16.68;91.18;101560.97;6276077;28;20060;-73
2023/06/27 06:48:00;;;;;;;2.50;1.02;;;;;;;16.72;90.70;101551.88;6253190;28;20050;-73
2023/06/27 06:51:02;;;;;;;6.18;1.30;;;;;;;16.76;91.83;101556.03;6252856;28;20076;-73
2023/06/27 06:54:03;;;;;;;6.50;1.17;;;;;;;16.90;90.04;101544.50;6253114;28;20416;-74
2023/06/27 06:57:05;;;;;;;7.53;1.52;;;;;;;16.96;88.48;101552.06;6253314;28;20442;-73
2023/06/27 07:00:09;;;;;;;1.27;0.80;;;;;;;17.05;86.06;101546.13;6253095;28;20053;-74
2023/06/27 07:03:11;;;;;;;1.85;1.25;;;;;;;17.19;86.77;101553.16;6252594;28;20052;-73
2023/06/27 07:06:12;;;;;;;5.90;1.15;;;;;;;17.21;84.38;101541.47;6252962;28;20049;-73
2023/06/27 07:09:13;;;;;;;1.08;0.77;;;;;;;17.30;84.48;101547.94;6252699;28;20048;-73
2023/06/27 07:12:15;;;;;;;2.25;0.85;;;;;;;17.34;81.05;101543.25;6252236;28;20041;-73
2023/06/27 07:15:18;;;;;;;2.22;0.90;;;;;;;17.39;82.23;101546.44;6252638;28;20045;-73
2023/06/27 07:18:19;;;;;;;3.63;0.88;;;;;;;17.45;82.65;101543.38;6252854;28;20041;-73
2023/06/27 07:21:20;;;;;;;6.85;1.45;;;;;;;17.49;82.55;101542.22;6250741;28;20045;-73
2023/06/27 07:24:22;;;;;;;2.53;0.88;;;;;;;17.50;79.66;101539.44;6252696;28;20053;-74
2023/06/27 07:27:23;;;;;;;3.15;1.42;;;;;;;17.50;80.47;101544.75;6266215;28;20045;-73
2023/06/27 07:30:26;;;;;;;5.38;1.00;;;;;;;17.52;80.45;101534.00;6277281;28;20052;-72
2023/06/27 07:33:27;;;;;;;1.15;0.70;;;;;;;17.64;81.81;101540.28;6270317;28;20045;-73
2023/06/27 07:36:28;;;;;;;3.33;1.05;;;;;;;17.67;78.93;101534.75;6274926;28;20044;-73
2023/06/27 07:39:30;;;;;;;1.63;0.80;;;;;;;17.67;78.52;101532.09;6277018;28;20048;-73
2023/06/27 07:42:31;;;;;;;2.53;0.98;;;;;;;17.71;77.03;101525.59;6252858;28;20049;-74
2023/06/27 07:45:34;;;;;;;3.28;0.82;;;;;;;17.73;78.04;101529.88;6267078;28;20052;-72
2023/06/27 07:48:35;;;;;;;3.45;0.93;;;;;;;17.80;75.87;101524.13;6261125;28;20426;-72
2023/06/27 07:51:36;;;;;;;3.40;0.80;;;;;;;17.88;75.46;101521.78;6251367;28;20052;-73
2023/06/27 07:54:38;;;;;;;3.55;1.13;;;;;;;17.96;75.25;101516.75;6251802;28;20446;-73
2023/06/27 07:57:39;;;;;;;1.52;0.82;;;;;;;18.04;70.98;101521.53;6251685;28;20358;-73
2023/06/27 08:00:41;;;;;;;1.15;0.65;;;;;;;18.10;71.09;101529.06;6251228;28;20044;-74
2023/06/27 08:03:43;;;;;;;1.27;0.70;;;;;;;18.11;71.53;101522.75;6252058;28;20635;-75
2023/06/27 08:06:44;;;;;;;3.47;0.63;;;;;;;18.17;73.22;101519.69;6243556;28;20049;-73
2023/06/27 08:09:45;;;;;;;0.75;0.60;;;;;;;18.31;72.15;101516.84;6251346;28;20048;-73
2023/06/27 08:12:47;;;;;;;1.75;0.77;;;;;;;18.36;70.63;101525.34;6250604;28;20366;-72
2023/06/27 08:15:49;;;;;;;3.80;0.90;;;;;;;18.40;70.00;101525.97;6251247;28;20128;-73
2023/06/27 08:18:51;;;;;;;2.63;0.70;;;;;;;18.42;67.74;101527.53;6251563;28;20052;-72
2023/06/27 08:21:52;;;;;;;1.05;0.60;;;;;;;18.42;66.99;101518.72;6250503;28;20049;-72
2023/06/27 08:24:53;;;;;;;1.33;0.50;;;;;;;18.52;67.58;101517.91;6251188;28;20057;-73
2023/06/27 08:27:55;;;;;;;2.00;0.60;;;;;;;18.57;65.05;101520.22;6250857;28;20041;-73
2023/06/27 08:30:57;;;;;;;1.58;0.50;;;;;;;18.68;64.49;101522.09;6250406;28;20057;-72
2023/06/27 08:33:59;;;;;;;1.63;0.60;;;;;;;18.72;63.93;101519.13;6250447;28;20045;-75
2023/06/27 08:37:00;;;;;;;2.05;0.70;;;;;;;18.78;63.75;101519.63;6251076;28;20053;-73
2023/06/27 08:40:02;;;;;;;3.30;0.70;;;;;;;18.83;62.89;101512.97;6250903;28;20439;-73
2023/06/27 08:43:06;;;;;;;0.75;0.45;;;;;;;18.76;63.80;101511.75;6249984;28;20084;-73
2023/06/27 08:46:09;;;;;;;1.75;0.50;;;;;;;18.84;62.21;101495.19;6250807;28;20591;-73
2023/06/27 08:49:20;;;;;;;1.45;1.00;;;;;;;18.94;62.17;101506.81;6250538;28;20434;-72
2023/06/27 08:52:23;;;;;;;0.93;0.50;;;;;;;18.96;61.67;101507.56;6250129;28;20056;-72
2023/06/27 08:55:33;;;;;;;0.45;0.45;;;;;;;18.94;59.72;101507.69;6250396;28;20045;-73
2023/06/27 08:58:41;;;;;;;4.65;0.52;;;;;;;19.04;59.15;101501.66;6250697;28;20346;-73
2023/06/27 09:01:44;;;;;;;1.08;0.70;;;;;;;19.14;59.26;101510.63;6249830;28;20057;-80
2023/06/27 09:04:46;;;;;;;4.00;0.75;;;;;;;19.26;59.24;101502.53;6250465;28;20345;-73
2023/06/27 09:07:49;;;;;;;0.93;0.43;;;;;;;19.33;58.88;101500.22;6250337;28;20048;-73
2023/06/27 09:10:50;;;;;;;3.53;0.98;;;;;;;19.30;59.05;101492.47;6249778;28;20046;-73
2023/06/27 09:13:52;;;;;;;3.08;0.50;;;;;;;19.29;58.33;101493.44;6250224;28;20065;-74
2023/06/27 09:16:54;;;;;;;2.65;0.75;;;;;;;19.35;59.50;101492.97;6250463;28;20050;-73
2023/06/27 09:19:56;;;;;;;0.55;0.50;;;;;;;19.41;59.02;101489.81;6250340;28;20046;-73
2023/06/27 09:22:58;;;;;;;1.75;0.60;;;;;;;19.37;59.22;101487.53;6249733;28;20049;-72
2023/06/27 09:26:06;;;;;;;4.13;0.63;;;;;;;19.42;60.25;101486.19;6250031;28;20060;-73
2023/06/27 09:29:08;;;;;;;2.83;0.50;;;;;;;19.57;59.09;101475.28;6261800;28;20049;-73
2023/06/27 09:32:10;;;;;;;3.13;0.95;;;;;;;19.70;60.36;101476.88;6274135;28;20045;-72
2023/06/27 09:35:15;;;;;;;3.80;0.60;;;;;;;19.71;58.30;101483.03;6274610;28;20045;-72
2023/06/27 09:38:19;;;;;;;3.85;0.77;;;;;;;19.64;58.25;101473.84;6274828;28;20452;-74
2023/06/27 09:41:21;;;;;;;2.88;0.70;;;;;;;19.67;59.99;101470.97;6257455;28;20045;-72
2023/06/27 09:44:25;;;;;;;1.70;0.70;;;;;;;19.78;58.79;101468.25;6275873;28;20052;-73
2023/06/27 09:47:28;;;;;;;1.13;0.38;;;;;;;19.83;57.80;101467.88;6279519;28;20448;-73
2023/06/27 09:50:30;;;;;;;5.72;1.27;;;;;;;19.86;58.47;101468.50;6279478;28;20044;-73
2023/06/27 09:53:33;;;;;;;0.60;0.50;;;;;;;19.93;58.59;101476.81;6279239;28;20345;-72
2023/06/27 09:56:35;;;;;;;0.50;0.47;;;;;;;19.89;58.04;101475.38;6255887;28;20049;-73
2023/06/27 09:59:36;;;;;;;2.33;0.93;;;;;;;19.87;58.13;101478.19;6254502;28;20045;-73
2023/06/27 10:02:39;;;;;;;3.75;0.50;;;;;;;20.02;59.32;101481.41;6261341;28;20041;-72
2023/06/27 10:05:40;;;;;;;4.13;0.75;;;;;;;19.94;55.54;101475.84;6279002;28;20052;-72
2023/06/27 10:08:42;;;;;;;1.77;0.50;;;;;;;19.96;55.73;101464.09;6279049;28;20041;-73
2023/06/27 10:11:43;;;;;;;1.20;0.40;;;;;;;20.05;56.67;101467.84;6278275;28;20048;-72
2023/06/27 10:14:45;;;;;;;0.95;0.60;;;;;;;20.08;57.30;101464.94;6246019;28;20048;-72
2023/06/27 10:17:48;;;;;;;1.48;0.50;;;;;;;20.02;57.53;101460.91;6254064;28;20049;-73
2023/06/27 10:20:50;;;;;;;0.85;0.50;;;;;;;20.06;56.99;101464.19;6253574;28;20078;-72
2023/06/27 10:23:53;;;;;;;3.67;0.63;;;;;;;20.20;55.97;101463.06;6253808;28;20347;-71
2023/06/27 10:26:56;;;;;;;2.67;0.60;;;;;;;20.25;54.97;101453.69;6253816;28;20358;-73
2023/06/27 10:29:58;;;;;;;1.67;0.50;;;;;;;20.23;57.12;101449.47;6253881;28;20453;-72
2023/06/27 10:33:22;;;;;;;1.85;0.50;;;;;;;20.21;56.83;101446.94;6253069;28;20052;-73
2023/06/27 10:36:23;;;;;;;0.73;0.60;;;;;;;20.15;57.00;101459.91;6245155;28;20072;-72
2023/06/27 10:39:28;;;;;;;0.73;0.38;;;;;;;20.13;56.02;101453.88;6253620;28;20430;-72
2023/06/27 10:42:31;;;;;;;1.33;0.47;;;;;;;20.09;55.64;101458.59;6267319;28;20040;-72
2023/06/27 10:45:32;;;;;;;0.63;0.50;;;;;;;20.10;55.11;101446.94;6263122;28;20053;-72
2023/06/27 10:48:36;;;;;;;4.57;1.15;;;;;;;20.07;57.18;101441.84;6253533;28;20045;-72
2023/06/27 10:51:41;;;;;;;3.97;0.60;;;;;;;20.09;57.71;101441.75;6252594;28;20042;-73
2023/06/27 10:54:43;;;;;;;5.38;0.85;;;;;;;20.20;55.62;101449.72;6253061;28;20504;-73
2023/06/27 10:57:45;;;;;;;5.82;0.52;;;;;;;20.37;54.09;101449.16;6253214;28;20049;-72
2023/06/27 11:00:51;;;;;;;1.77;0.60;;;;;;;20.42;53.93;101451.44;6269543;28;20053;-73
2023/06/27 11:03:57;;;;;;;2.47;0.45;;;;;;;20.36;54.77;101447.47;6277797;28;20041;-72
2023/06/27 11:07:00;;;;;;;0.95;0.57;;;;;;;20.28;54.70;101441.91;6267601;28;20080;-73
2023/06/27 11:10:01;;;;;;;1.13;0.30;;;;;;;20.27;55.79;101443.75;6252722;28;20072;-73
2023/06/27 11:13:13;;;;;;;6.65;0.60;;;;;;;20.24;56.13;101446.66;6252183;28;20060;-72
2023/06/27 11:16:15;;;;;;;0.80;0.45;;;;;;;20.23;56.40;101450.31;6265456;28;20056;-73
2023/06/27 11:19:19;;;;;;;1.02;0.60;;;;;;;20.28;56.85;101455.25;6277303;28;20041;-73
2023/06/27 11:22:21;;;;;;;2.15;0.50;;;;;;;20.23;58.02;101450.31;6276886;28;20052;-73
2023/06/27 11:25:22;;;;;;;4.00;0.60;;;;;;;20.23;57.59;101441.47;6277110;28;20434;-73
2023/06/27 11:28:25;;;;;;;3.40;0.47;;;;;;;20.33;58.19;101444.19;6277549;28;20056;-73
2023/06/27 11:31:26;;;;;;;0.77;0.52;;;;;;;20.22;58.80;101440.59;6276298;28;20122;-73
2023/06/27 11:34:29;;;;;;;0.43;0.30;;;;;;;20.19;58.31;101437.34;6277157;28;20049;-73
2023/06/27 11:37:31;;;;;;;0.90;0.50;;;;;;;20.15;59.63;101436.75;6277083;28;20048;-73
2023/06/27 11:40:32;;;;;;;0.40;0.40;;;;;;;20.28;59.19;101428.56;6276453;28;20048;-73
2023/06/27 11:43:33;;;;;;;2.65;0.50;;;;;;;20.68;58.95;101434.09;6276693;28;20456;-72
2023/06/27 11:46:35;;;;;;;1.65;0.60;;;;;;;20.94;57.40;101426.53;6277003;28;20383;-73
2023/06/27 11:49:42;;;;;;;1.08;0.57;;;;;;;20.91;55.14;101423.28;6276998;28;20044;-73
2023/06/27 11:52:43;;;;;;;2.38;0.47;;;;;;;20.80;58.16;101428.69;6259823;28;20049;-72
2023/06/27 11:55:44;;;;;;;1.23;0.45;;;;;;;20.70;56.91;101431.28;6243715;28;20103;-72
2023/06/27 11:58:47;;;;;;;0.52;0.32;;;;;;;20.78;55.02;101428.81;6251915;28;20049;-73
2023/06/27 12:01:48;;;;;;;0.93;0.68;;;;;;;21.25;54.99;101435.38;6251277;28;20124;-73
2023/06/27 12:04:58;;;;;;;2.30;0.70;;;;;;;21.74;50.92;101427.56;6251581;28;20362;-79
2023/06/27 12:08:01;;;;;;;;;;;;;;;21.54;51.79;101424.00;6251632;28;20132;-72
2023/06/27 12:11:03;;;;;;;2.15;0.70;;;;;;;21.32;51.00;101425.03;6250746;28;19921;-73
2023/06/27 12:14:05;;;;;;;0.63;0.52;;;;;;;21.18;52.56;101428.91;6251580;28;20049;-73
2023/06/27 12:17:20;;;;;;;1.65;0.40;;;;;;;21.15;53.39;101430.97;6251317;28;20051;-73
2023/06/27 12:20:23;;;;;;;2.00;0.75;;;;;;;21.12;52.48;101425.91;6259772;28;20049;-74
2023/06/27 12:23:27;;;;;;;3.47;0.65;;;;;;;21.04;52.73;101426.59;6250378;28;20045;-73
2023/06/27 12:26:29;;;;;;;5.00;0.57;;;;;;;20.99;53.48;101416.28;6257392;28;20048;-71
2023/06/27 12:29:30;;;;;;;1.58;0.60;;;;;;;21.16;54.01;101412.13;6275731;28;20445;-72
2023/06/27 12:32:31;;;;;;;1.58;0.60;;;;;;;21.36;54.15;101422.97;6275112;28;20049;-71
2023/06/27 12:35:34;;;;;;;2.05;0.47;;;;;;;21.30;54.47;101416.25;6275464;28;20353;-72
2023/06/27 12:38:35;;;;;;;0.40;0.40;;;;;;;21.24;51.70;101411.47;6275781;28;20052;-72
2023/06/27 12:41:37;;;;;;;1.88;0.90;;;;;;;21.44;53.07;101407.94;6274889;28;20441;-72
2023/06/27 12:44:38;;;;;;;3.03;0.63;;;;;;;21.39;59.01;101411.97;6275248;28;20437;-72
2023/06/27 12:47:41;;;;;;;1.00;0.50;;;;;;;21.18;61.03;101410.19;6275597;28;20048;-72
2023/06/27 12:50:44;;;;;;;4.13;0.73;;;;;;;21.08;61.27;101397.78;6274513;28;20348;-72
2023/06/27 12:53:45;;;;;;;5.68;0.70;;;;;;;21.17;63.53;101396.97;6242647;28;20042;-72
2023/06/27 12:56:46;;;;;;;3.10;0.65;;;;;;;21.36;65.39;101398.88;6250501;28;20045;-72
2023/06/27 12:59:48;;;;;;;1.27;0.70;;;;;;;21.49;59.48;101394.16;6250665;28;20045;-72
2023/06/27 13:02:49;;;;;;;0.30;0.30;;;;;;;21.40;61.31;101397.63;6249835;28;20045;-73
2023/06/27 13:05:52;;;;;;;2.05;0.60;;;;;;;21.15;61.63;101389.06;6250345;28;20453;-72
2023/06/27 13:08:53;;;;;;;5.18;0.65;;;;;;;21.08;64.04;101392.44;6250308;28;20354;-72
2023/06/27 13:11:55;;;;;;;1.88;0.80;;;;;;;20.94;63.90;101402.50;6249539;28;20046;-71
2023/06/27 13:14:57;;;;;;;2.45;1.08;;;;;;;20.90;60.87;101401.06;6250330;28;20140;-72
2023/06/27 13:17:58;;;;;;;1.00;0.52;;;;;;;20.84;60.22;101406.06;6250801;28;20565;-71
2023/06/27 13:21:00;;;;;;;1.80;0.80;;;;;;;20.86;59.34;101423.66;6254815;28;20048;-72
2023/06/27 13:24:02;;;;;;;1.25;0.50;;;;;;;20.87;52.96;101397.78;6255219;28;20056;-73
2023/06/27 13:27:04;;;;;;;2.17;0.70;;;;;;;20.83;51.32;101410.56;6255458;28;20053;-71
2023/06/27 13:30:07;;;;;;;0.65;0.40;;;;;;;20.89;52.98;101412.72;6255105;28;20144;-71
2023/06/27 13:33:09;;;;;;;1.90;0.50;;;;;;;20.86;54.78;101407.63;6254394;28;20041;-73
2023/06/27 13:36:11;;;;;;;0.55;0.47;;;;;;;20.87;56.91;101405.81;6254930;28;20182;-72
2023/06/27 13:39:14;;;;;;;0.95;0.50;;;;;;;20.70;55.64;101401.91;6255222;28;20430;-72
2023/06/27 13:42:15;;;;;;;0.77;0.55;;;;;;;20.68;55.41;101399.38;6275034;28;20045;-75
2023/06/27 13:45:17;;;;;;;0.85;0.60;;;;;;;20.52;56.37;101391.81;6279421;28;20048;-72
2023/06/27 13:48:18;;;;;;;1.23;0.43;;;;;;;20.73;57.45;101397.16;6266842;28;20041;-72
2023/06/27 13:51:21;;;;;;;5.55;0.82;;;;;;;21.05;54.50;101384.66;6253872;28;20045;-71
2023/06/27 13:54:22;;;;;;;0.90;0.60;;;;;;;21.11;56.12;101384.97;6254572;28;20072;-72
2023/06/27 13:57:24;;;;;;;3.22;0.47;;;;;;;21.25;54.82;101383.75;6254752;28;20117;-72
2023/06/27 14:00:25;;;;;;;2.47;0.50;;;;;;;21.34;55.49;101388.31;6254957;28;20057;-72
2023/06/27 14:03:27;;;;;;;1.33;0.70;;;;;;;21.69;53.02;101384.31;6253820;28;20041;-73
2023/06/27 14:06:29;;;;;;;0.90;0.60;;;;;;;21.75;54.17;101383.75;6254749;28;20045;-74